Map

Track Data

SID SEASON NUMBER BASIN SUBBASIN NAME ISO_TIME NATURE LAT LON WMO_WIND WMO_PRES WMO_AGENCY TRACK_TYPE DIST2LAND LANDFALL IFLAG USA_AGENCY USA_ATCF_ID USA_LAT USA_LON USA_RECORD USA_STATUS USA_WIND USA_PRES USA_SSHS USA_R34_NE USA_R34_SE USA_R34_SW USA_R34_NW USA_R50_NE USA_R50_SE USA_R50_SW USA_R50_NW USA_R64_NE USA_R64_SE USA_R64_SW USA_R64_NW USA_POCI USA_ROCI USA_RMW USA_EYE TOKYO_LAT TOKYO_LON TOKYO_GRADE TOKYO_WIND TOKYO_PRES TOKYO_R50_DIR TOKYO_R50_LONG TOKYO_R50_SHORT TOKYO_R30_DIR TOKYO_R30_LONG TOKYO_R30_SHORT TOKYO_LAND CMA_LAT CMA_LON CMA_CAT CMA_WIND CMA_PRES HKO_LAT HKO_LON HKO_CAT HKO_WIND HKO_PRES NEWDELHI_LAT NEWDELHI_LON NEWDELHI_GRADE NEWDELHI_WIND NEWDELHI_PRES NEWDELHI_CI NEWDELHI_DP NEWDELHI_POCI REUNION_LAT REUNION_LON REUNION_TYPE REUNION_WIND REUNION_PRES REUNION_TNUM REUNION_CI REUNION_RMW REUNION_R34_NE REUNION_R34_SE REUNION_R34_SW REUNION_R34_NW REUNION_R50_NE REUNION_R50_SE REUNION_R50_SW REUNION_R50_NW REUNION_R64_NE REUNION_R64_SE REUNION_R64_SW REUNION_R64_NW BOM_LAT BOM_LON BOM_TYPE BOM_WIND BOM_PRES BOM_TNUM BOM_CI BOM_RMW BOM_R34_NE BOM_R34_SE BOM_R34_SW BOM_R34_NW BOM_R50_NE BOM_R50_SE BOM_R50_SW BOM_R50_NW BOM_R64_NE BOM_R64_SE BOM_R64_SW BOM_R64_NW BOM_ROCI BOM_POCI BOM_EYE BOM_POS_METHOD BOM_PRES_METHOD NADI_LAT NADI_LON NADI_CAT NADI_WIND NADI_PRES WELLINGTON_LAT WELLINGTON_LON WELLINGTON_WIND WELLINGTON_PRES DS824_LAT DS824_LON DS824_STAGE DS824_WIND DS824_PRES TD9636_LAT TD9636_LON TD9636_STAGE TD9636_WIND TD9636_PRES TD9635_LAT TD9635_LON TD9635_WIND TD9635_PRES TD9635_ROCI NEUMANN_LAT NEUMANN_LON NEUMANN_CLASS NEUMANN_WIND NEUMANN_PRES MLC_LAT MLC_LON MLC_CLASS MLC_WIND MLC_PRES USA_GUST BOM_GUST BOM_GUST_PER REUNION_GUST REUNION_GUST_PER USA_SEAHGT USA_SEARAD_NE USA_SEARAD_SE USA_SEARAD_SW USA_SEARAD_NW STORM_SPEED STORM_DIR
1987243N14328 1987 66 NA NA NOT_NAMED 1987-08-30 12:00:00 TS 14.0000 -32.0000 25 hurdat_atl main 1564 1564 O_____________ hurdat_atl AL061987 14.0000 -32.0000 TD 25 -1 11 279
1987243N14328 1987 66 NA NA NOT_NAMED 1987-08-30 15:00:00 TS 14.0901 -32.5750 main 1628 1628 P_____________ AL061987 14.0901 -32.5750 TD 25 -1 12 280
1987243N14328 1987 66 NA NA NOT_NAMED 1987-08-30 18:00:00 TS 14.2000 -33.2000 25 hurdat_atl main 1691 1691 O_____________ hurdat_atl AL061987 14.2000 -33.2000 TD 25 -1 13 281
1987243N14328 1987 66 NA NA NOT_NAMED 1987-08-30 21:00:00 TS 14.3425 -33.9000 main 1766 1765 P_____________ AL061987 14.3425 -33.9000 TD 27 -1 14 282
1987243N14328 1987 66 NA NA NOT_NAMED 1987-08-31 00:00:00 TS 14.5000 -34.6000 30 hurdat_atl main 1840 1840 O_____________ hurdat_atl AL061987 14.5000 -34.6000 TD 30 -1 13 284
1987243N14328 1987 66 NA NA NOT_NAMED 1987-08-31 03:00:00 TS 14.6572 -35.2150 main 1904 1904 P_____________ AL061987 14.6572 -35.2150 TD 30 -1 12 284
1987243N14328 1987 66 NA NA NOT_NAMED 1987-08-31 06:00:00 TS 14.8000 -35.8000 30 hurdat_atl main 1968 1968 O_____________ hurdat_atl AL061987 14.8000 -35.8000 TD 30 -1 12 282
1987243N14328 1987 66 NA NA NOT_NAMED 1987-08-31 09:00:00 TS 14.9073 -36.4001 main 2018 1972 P_____________ AL061987 14.9073 -36.4001 TD 30 -1 12 280
1987243N14328 1987 66 NA NA NOT_NAMED 1987-08-31 12:00:00 TS 15.0000 -37.0000 30 hurdat_atl main 1972 1935 O_____________ hurdat_atl AL061987 15.0000 -37.0000 TD 30 -1 11 279
1987243N14328 1987 66 NA NA NOT_NAMED 1987-08-31 15:00:00 TS 15.0921 -37.5702 main 1927 1883 P_____________ AL061987 15.0921 -37.5702 TD 30 -1 12 280
1987243N14328 1987 66 NA NA NOT_NAMED 1987-08-31 18:00:00 TS 15.2000 -38.2000 30 hurdat_atl main 1883 1825 O_____________ hurdat_atl AL061987 15.2000 -38.2000 TD 30 -1 14 280
1987243N14328 1987 66 NA NA NOT_NAMED 1987-08-31 21:00:00 TS 15.3354 -39.0075 main 1825 1776 P_____________ AL061987 15.3354 -39.0075 TD 30 -1 16 281
1987243N14328 1987 66 NA NA NOT_NAMED 1987-09-01 00:00:00 TS 15.5000 -39.8000 30 hurdat_atl main 1776 1746 O_____________ hurdat_atl AL061987 15.5000 -39.8000 TD 30 -1 14 286
1987243N14328 1987 66 NA NA NOT_NAMED 1987-09-01 03:00:00 TS 15.7145 -40.3874 main 1746 1726 P_____________ AL061987 15.7145 -40.3874 TD 30 -1 11 291
1987243N14328 1987 66 NA NA NOT_NAMED 1987-09-01 06:00:00 TS 15.9000 -40.9000 30 hurdat_atl main 1726 1699 O_____________ hurdat_atl AL061987 15.9000 -40.9000 TD 30 -1 10 284
1987243N14328 1987 66 NA NA NOT_NAMED 1987-09-01 09:00:00 TS 15.9648 -41.4428 main 1699 1658 P_____________ AL061987 15.9648 -41.4428 TD 30 -1 11 275
1987243N14328 1987 66 NA NA NOT_NAMED 1987-09-01 12:00:00 TS 16.0000 -42.0000 30 hurdat_atl main 1658 1625 O_____________ hurdat_atl AL061987 16.0000 -42.0000 TD 30 -1 11 275
1987243N14328 1987 66 NA NA NOT_NAMED 1987-09-01 15:00:00 TS 16.0699 -42.5927 main 1628 1599 P_____________ AL061987 16.0699 -42.5927 TD 30 -1 12 280
1987243N14328 1987 66 NA NA NOT_NAMED 1987-09-01 18:00:00 TS 16.2000 -43.2000 30 hurdat_atl main 1599 1579 O_____________ hurdat_atl AL061987 16.2000 -43.2000 TD 30 -1 12 288
1987243N14328 1987 66 NA NA NOT_NAMED 1987-09-01 21:00:00 TS 16.4497 -43.7848 main 1579 1567 P_____________ AL061987 16.4497 -43.7848 TD 30 -1 13 293
1987243N14328 1987 66 NA NA NOT_NAMED 1987-09-02 00:00:00 TS 16.7000 -44.4000 30 hurdat_atl main 1567 1534 O_____________ hurdat_atl AL061987 16.7000 -44.4000 TD 30 -1 13 287
1987243N14328 1987 66 NA NA NOT_NAMED 1987-09-02 03:00:00 TS 16.8301 -45.1002 main 1534 1505 P_____________ AL061987 16.8301 -45.1002 TD 27 -1 14 278
1987243N14328 1987 66 NA NA NOT_NAMED 1987-09-02 06:00:00 TS 16.9000 -45.8000 25 hurdat_atl main 1505 1474 O_____________ hurdat_atl AL061987 16.9000 -45.8000 TD 25 -1 13 275
1987243N14328 1987 66 NA NA NOT_NAMED 1987-09-02 09:00:00 TS 16.9497 -46.4152 main 1474 1454 P_____________ AL061987 16.9497 -46.4152 TD 25 -1 12 275
1987243N14328 1987 66 NA NA NOT_NAMED 1987-09-02 12:00:00 TS 17.0000 -47.0000 25 hurdat_atl main 1454 1436 O_____________ hurdat_atl AL061987 17.0000 -47.0000 TD 25 -1 11 277
1987243N14328 1987 66 NA NA NOT_NAMED 1987-09-02 15:00:00 TS 17.0879 -47.5948 main 1437 1423 P_____________ AL061987 17.0879 -47.5948 TD 22 -1 12 280
1987243N14328 1987 66 NA NA NOT_NAMED 1987-09-02 18:00:00 TS 17.2000 -48.2000 20 hurdat_atl main 1423 O_____________ hurdat_atl AL061987 17.2000 -48.2000 TD 20 -1 12 281

About IBTrACS Database

This database is a web-friendly format of International Best Track Archive for Climate Stewardship (IBTrACS), a global best track data archive curated by NOAA dating back to 1842.

Updated: 2021-10-21